Time;durP1;ratioP1;P1;durP2;ratioP2;P2;SDS_P1;SDS_P2;PMS_P1;PMS_P2;Temp;Humidity;BMP_temperature;BMP_pressure;BME280_temperature;BME280_humidity;BME280_pressure;Samples;Min_cycle;Max_cycle;Signal;HPM_P1;HPM_P2
2021/11/30 00:01:53;;;;;;;1.97;1.80;;;;;;;20.32;49.34;97044.94;5011407;28;20281;-81
2021/11/30 00:04:22;;;;;;;2.27;2.03;;;;;;;19.71;49.46;96937.81;4989132;28;20293;-81
2021/11/30 00:06:51;;;;;;;1.90;1.80;;;;;;;18.76;49.31;96778.88;4999531;28;20213;-81
2021/11/30 00:12:02;;;;;;;1.80;1.70;;;;;;;19.32;49.42;96867.94;4997551;28;20202;-81
2021/11/30 00:14:31;;;;;;;1.90;1.80;;;;;;;20.11;49.49;97012.03;5028022;28;20667;-80
2021/11/30 00:16:58;;;;;;;1.80;1.70;;;;;;;18.57;49.03;96787.69;4986767;28;20202;-81
2021/11/30 00:19:25;;;;;;;2.13;1.90;;;;;;;20.13;49.54;97018.06;5010454;28;20218;-81
2021/11/30 00:21:52;;;;;;;2.07;1.90;;;;;;;18.63;49.43;96792.94;5013545;28;20849;-80
2021/11/30 00:24:19;;;;;;;2.10;1.90;;;;;;;18.00;49.26;96669.81;5000488;28;20241;-81
2021/11/30 00:26:45;;;;;;;1.90;1.80;;;;;;;17.84;49.40;96632.06;5005976;28;20236;-81
2021/11/30 00:29:12;;;;;;;1.97;1.87;;;;;;;20.14;49.21;97024.03;5007769;28;20257;-81
2021/11/30 00:31:38;;;;;;;2.17;1.97;;;;;;;18.19;49.46;96692.44;5015016;28;20201;-81
2021/11/30 00:34:11;;;;;;;1.80;1.70;;;;;;;17.62;49.45;96616.13;4987960;28;20255;-80
2021/11/30 00:36:37;;;;;;;1.90;1.80;;;;;;;17.27;49.23;96593.84;4994497;28;20255;-82
2021/11/30 00:39:05;;;;;;;1.70;1.60;;;;;;;18.04;49.24;96683.47;4997148;28;20280;-81
2021/11/30 00:41:33;;;;;;;3.00;1.80;;;;;;;17.30;49.25;96560.91;5037318;28;20290;-81
2021/11/30 00:43:59;;;;;;;2.13;1.93;;;;;;;20.00;49.49;97021.09;4995467;28;20249;-81
2021/11/30 00:46:34;;;;;;;1.83;1.73;;;;;;;19.87;49.37;97011.38;5025447;28;20229;-82
2021/11/30 00:49:03;;;;;;;1.73;1.63;;;;;;;20.21;49.19;97065.06;5025589;28;20316;-81
2021/11/30 00:51:30;;;;;;;1.77;1.67;;;;;;;15.67;49.48;96301.25;5024217;28;20703;-81
2021/11/30 00:53:57;;;;;;;1.60;1.50;;;;;;;16.90;49.31;96509.75;5017584;28;20718;-81
2021/11/30 00:56:24;;;;;;;1.70;1.57;;;;;;;18.85;49.57;96840.22;5001081;28;20237;-81
2021/11/30 00:58:50;;;;;;;1.70;1.60;;;;;;;20.14;49.47;97054.66;5010452;28;20262;-80
2021/11/30 01:01:19;;;;;;;1.60;1.50;;;;;;;17.20;49.12;96558.94;5020507;28;20198;-81
2021/11/30 01:03:46;;;;;;;1.70;1.60;;;;;;;17.69;49.37;96666.31;5002356;28;20304;-81
2021/11/30 01:06:13;;;;;;;2.00;1.90;;;;;;;12.99;49.23;95871.56;4997052;28;20212;-81
2021/11/30 01:08:40;;;;;;;3.50;1.80;;;;;;;15.50;49.28;96252.59;4970031;28;20225;-81
2021/11/30 01:11:07;;;;;;;1.60;1.50;;;;;;;15.59;49.20;96275.69;4992356;28;20210;-81
2021/11/30 01:13:34;;;;;;;2.10;1.47;;;;;;;15.66;49.43;96299.56;5017353;28;20202;-81
2021/11/30 01:16:01;;;;;;;1.70;1.60;;;;;;;20.22;49.47;97081.25;4981881;28;20210;-79
2021/11/30 01:18:28;;;;;;;2.30;1.70;;;;;;;17.35;49.22;96595.78;4999356;28;20772;-81
2021/11/30 01:20:54;;;;;;;1.60;1.50;;;;;;;16.77;49.49;96500.03;4990032;28;20206;-81
2021/11/30 01:23:21;;;;;;;1.50;1.40;;;;;;;19.99;49.36;97032.97;4993198;28;20215;-81
2021/11/30 01:25:47;;;;;;;2.00;1.70;;;;;;;18.54;49.45;96791.81;5015530;28;20660;-81
2021/11/30 01:28:14;;;;;;;1.97;1.77;;;;;;;20.19;48.91;97079.44;5036231;28;20308;-81
2021/11/30 01:30:41;;;;;;;1.77;1.60;;;;;;;19.37;49.39;96937.72;5020372;28;20194;-82
2021/11/30 01:33:10;;;;;;;1.77;1.67;;;;;;;19.96;49.65;97034.59;5034983;28;20198;-81
2021/11/30 01:35:37;;;;;;;1.40;1.30;;;;;;;19.28;49.57;96917.97;4998664;28;20572;-80
2021/11/30 01:38:04;;;;;;;1.70;1.60;;;;;;;12.79;49.39;95817.91;5012180;28;20229;-81
2021/11/30 01:40:31;;;;;;;1.67;1.57;;;;;;;17.38;49.46;96668.69;5010613;28;20609;-81
2021/11/30 01:43:00;;;;;;;2.10;1.70;;;;;;;14.80;49.42;96149.00;5013787;28;20222;-81
2021/11/30 01:45:45;;;;;;;1.53;1.43;;;;;;;17.50;49.31;96638.63;5008748;28;20206;-82
2021/11/30 01:50:53;;;;;;;1.70;1.60;;;;;;;16.72;49.38;96504.13;5010613;28;20217;-81
2021/11/30 01:53:19;;;;;;;1.70;1.60;;;;;;;18.32;49.53;96759.75;4986961;28;20224;-82
2021/11/30 01:55:47;;;;;;;1.80;1.70;;;;;;;17.73;49.47;96660.50;4995335;28;20198;-82
2021/11/30 01:58:14;;;;;;;1.63;1.53;;;;;;;19.59;49.26;96981.69;5013482;28;20252;-81
2021/11/30 02:00:41;;;;;;;1.70;1.60;;;;;;;20.51;49.59;97141.56;4975630;28;20271;-82
2021/11/30 02:03:08;;;;;;;1.60;1.50;;;;;;;20.33;49.52;97110.44;4987140;28;20229;-80
2021/11/30 02:05:37;;;;;;;1.90;1.60;;;;;;;19.64;49.51;96992.91;5018453;28;20206;-82
2021/11/30 02:08:04;;;;;;;1.83;1.73;;;;;;;18.44;49.39;96777.94;5010505;28;20225;-81
2021/11/30 02:10:32;;;;;;;1.60;1.50;;;;;;;19.22;49.58;96927.06;5032463;28;20623;-82
2021/11/30 02:12:58;;;;;;;1.70;1.60;;;;;;;18.28;49.40;96745.22;5009079;28;20233;-81
2021/11/30 02:15:26;;;;;;;1.70;1.60;;;;;;;16.47;49.52;96499.91;4992229;28;20229;-81
2021/11/30 02:17:54;;;;;;;1.70;1.60;;;;;;;20.53;49.58;97130.59;5001869;28;20220;-81
2021/11/30 02:20:21;;;;;;;1.43;1.33;;;;;;;18.40;49.33;96765.97;5025470;28;20234;-80
2021/11/30 02:22:54;;;;;;;1.70;1.60;;;;;;;17.66;48.98;96644.22;4999867;28;20215;-82
2021/11/30 02:25:21;;;;;;;1.60;1.50;;;;;;;19.75;49.57;97000.84;5025899;28;20275;-81
2021/11/30 02:27:49;;;;;;;1.40;1.30;;;;;;;19.20;49.30;96921.06;5000757;28;20234;-83
2021/11/30 02:30:19;;;;;;;1.63;1.53;;;;;;;20.03;49.36;97046.66;5013447;28;20214;-80
2021/11/30 02:32:46;;;;;;;1.60;1.50;;;;;;;12.34;49.26;95759.16;4997777;28;20212;-81
2021/11/30 02:35:15;;;;;;;1.63;1.50;;;;;;;15.54;49.13;96289.84;5000276;28;20213;-81
2021/11/30 02:37:49;;;;;;;1.90;1.80;;;;;;;19.82;49.20;97002.72;5010046;28;20205;-82
2021/11/30 02:40:16;;;;;;;1.60;1.50;;;;;;;17.61;49.55;96663.53;5007656;28;20209;-81
2021/11/30 02:42:43;;;;;;;1.60;1.50;;;;;;;18.27;49.42;96744.34;5000434;28;20216;-82
2021/11/30 02:45:12;;;;;;;1.60;1.50;;;;;;;18.37;49.65;96752.25;5013282;28;20197;-82
2021/11/30 02:47:39;;;;;;;1.63;1.53;;;;;;;17.97;49.56;96712.09;5013648;28;20197;-82
2021/11/30 02:50:06;;;;;;;1.53;1.43;;;;;;;17.83;49.40;96688.75;5003577;28;20209;-80
2021/11/30 02:52:35;;;;;;;1.63;1.53;;;;;;;20.02;49.58;97018.56;5000509;28;20197;-82
2021/11/30 02:55:02;;;;;;;1.70;1.60;;;;;;;18.98;49.47;96837.22;5003548;28;20205;-82
2021/11/30 02:57:28;;;;;;;1.40;1.30;;;;;;;19.32;49.51;96893.41;5005554;28;20198;-81
2021/11/30 02:59:55;;;;;;;1.50;1.40;;;;;;;20.54;49.67;97096.59;5030411;28;20198;-81
2021/11/30 03:02:28;;;;;;;1.60;1.50;;;;;;;20.04;49.12;97027.97;5032923;28;20237;-81
2021/11/30 03:04:57;;;;;;;1.63;1.53;;;;;;;19.75;49.24;96983.00;4999650;28;20543;-81
2021/11/30 03:07:36;;;;;;;3.40;1.80;;;;;;;20.02;49.13;97031.31;5001206;28;21176;-80
2021/11/30 03:10:05;;;;;;;1.40;1.30;;;;;;;18.93;49.19;96852.38;5007686;28;20601;-81
2021/11/30 03:12:34;;;;;;;1.60;1.50;;;;;;;18.88;49.45;96861.56;5011203;28;20244;-82
2021/11/30 03:15:12;;;;;;;1.33;1.27;;;;;;;20.25;49.46;97081.34;5003691;28;20205;-81
2021/11/30 03:17:39;;;;;;;1.70;1.60;;;;;;;20.49;49.55;97122.81;4988481;28;20197;-82
2021/11/30 03:20:09;;;;;;;1.70;1.60;;;;;;;19.84;49.52;97024.88;5024747;28;20204;-82
2021/11/30 03:22:37;;;;;;;1.57;1.47;;;;;;;19.78;49.42;97000.94;4986978;28;20217;-81
2021/11/30 03:25:04;;;;;;;1.30;1.30;;;;;;;19.30;49.65;96921.38;5016593;28;20206;-83
2021/11/30 03:27:30;;;;;;;1.60;1.50;;;;;;;19.97;49.67;97036.31;5018951;28;20205;-82
2021/11/30 03:29:57;;;;;;;1.57;1.47;;;;;;;19.94;49.63;97024.34;4989491;28;20206;-82
2021/11/30 03:35:08;;;;;;;1.50;1.40;;;;;;;19.25;49.50;96920.38;5000929;28;20208;-81
2021/11/30 03:37:35;;;;;;;1.60;1.50;;;;;;;20.03;49.68;97049.22;4990828;28;20212;-82
2021/11/30 03:40:09;;;;;;;1.60;1.50;;;;;;;18.30;49.29;96763.94;5009115;28;20201;-82
2021/11/30 03:42:38;;;;;;;1.20;1.20;;;;;;;19.68;49.34;96984.50;5000667;28;20204;-82
2021/11/30 03:45:05;;;;;;;2.03;1.50;;;;;;;18.41;49.66;96782.09;4984616;28;20206;-81
2021/11/30 03:47:31;;;;;;;1.57;1.47;;;;;;;20.14;49.62;97065.72;4996347;28;20221;-79
2021/11/30 03:49:58;;;;;;;2.03;1.50;;;;;;;19.97;49.48;97028.66;4976305;28;20749;-81
2021/11/30 03:52:25;;;;;;;1.40;1.30;;;;;;;19.69;49.36;96982.81;5008558;28;20236;-82
2021/11/30 03:54:54;;;;;;;1.50;1.40;;;;;;;17.81;49.31;96666.66;4999356;28;20205;-82
2021/11/30 03:57:20;;;;;;;1.37;1.27;;;;;;;19.75;49.70;96993.19;4997690;28;20609;-82
2021/11/30 03:59:50;;;;;;;1.30;1.20;;;;;;;18.91;49.55;96846.38;5025202;28;20217;-82
2021/11/30 04:02:17;;;;;;;1.67;1.40;;;;;;;19.76;49.38;96984.72;4999810;28;20202;-81
2021/11/30 04:04:45;;;;;;;1.70;1.60;;;;;;;19.53;49.38;96980.66;5002469;28;20244;-83
2021/11/30 04:07:14;;;;;;;1.40;1.30;;;;;;;19.95;49.63;97026.06;5004926;28;20190;-82
2021/11/30 04:09:41;;;;;;;1.43;1.33;;;;;;;18.13;49.37;96752.41;4987279;28;20268;-82
2021/11/30 04:12:08;;;;;;;1.60;1.43;;;;;;;18.40;49.44;96782.91;5002999;28;20247;-81
2021/11/30 04:14:35;;;;;;;1.50;1.40;;;;;;;19.41;49.34;96929.34;4999599;28;20230;-80
2021/11/30 04:17:02;;;;;;;1.50;1.40;;;;;;;19.73;49.56;96984.63;4982273;28;20203;-82
2021/11/30 04:19:28;;;;;;;1.47;1.37;;;;;;;19.94;49.44;97024.34;5025165;28;20225;-82
2021/11/30 04:21:55;;;;;;;1.40;1.30;;;;;;;18.10;49.47;96726.88;4998446;28;20202;-81
2021/11/30 04:24:22;;;;;;;1.40;1.30;;;;;;;18.53;49.36;96801.13;4993527;28;20644;-80
2021/11/30 04:26:48;;;;;;;1.67;1.57;;;;;;;18.44;49.47;96772.03;4985964;28;20206;-81
2021/11/30 04:29:15;;;;;;;1.40;1.30;;;;;;;20.50;49.49;97130.53;5012425;23;20230;-77
2021/11/30 04:31:42;;;;;;;2.10;1.50;;;;;;;20.51;49.61;97139.03;4998121;28;20297;-79
2021/11/30 04:34:09;;;;;;;1.33;1.23;;;;;;;19.69;49.65;96993.88;4986911;28;20229;-79
2021/11/30 04:36:35;;;;;;;1.10;1.10;;;;;;;20.50;49.81;97137.31;4975049;28;20659;-79
2021/11/30 04:39:03;;;;;;;1.20;1.20;;;;;;;18.61;49.17;96824.25;5008975;28;20708;-79
2021/11/30 04:41:33;;;;;;;1.57;1.47;;;;;;;19.93;49.56;97035.34;5006771;28;20207;-79
2021/11/30 04:44:00;;;;;;;1.40;1.30;;;;;;;20.50;49.55;97140.75;5011230;28;20222;-80
2021/11/30 04:46:30;;;;;;;1.43;1.33;;;;;;;20.50;49.68;97138.19;5006943;28;20207;-79
2021/11/30 04:48:57;;;;;;;1.50;1.40;;;;;;;20.50;49.58;97133.06;5015829;28;20214;-79
2021/11/30 04:51:28;;;;;;;1.40;1.30;;;;;;;20.50;49.68;97138.19;4989949;28;20202;-78
2021/11/30 04:53:54;;;;;;;1.40;1.30;;;;;;;20.50;49.73;97125.41;5000860;28;20195;-79
2021/11/30 04:56:21;;;;;;;1.37;1.30;;;;;;;19.32;49.95;96934.16;4990699;28;20234;-80
2021/11/30 04:58:47;;;;;;;1.30;1.20;;;;;;;20.50;49.80;97124.53;4999606;28;20253;-80
2021/11/30 05:01:17;;;;;;;1.40;1.30;;;;;;;20.51;49.33;97128.81;5006845;28;20233;-79
2021/11/30 05:03:44;;;;;;;1.40;1.30;;;;;;;20.50;49.62;97127.09;4992889;28;20226;-80
2021/11/30 05:06:12;;;;;;;1.47;1.37;;;;;;;19.41;49.40;96942.94;4989835;28;20226;-80
2021/11/30 05:08:38;;;;;;;1.50;1.40;;;;;;;20.50;49.75;97130.53;5006732;28;20210;-80
2021/11/30 05:11:05;;;;;;;1.37;1.30;;;;;;;20.26;49.78;97083.94;5015901;28;20229;-79
2021/11/30 05:13:32;;;;;;;1.40;1.30;;;;;;;20.49;49.65;97121.13;4982104;28;20219;-80
2021/11/30 05:15:58;;;;;;;1.47;1.37;;;;;;;20.49;49.57;97123.66;4989750;28;20633;-80
2021/11/30 05:18:25;;;;;;;1.67;1.30;;;;;;;20.49;49.73;97118.56;5013514;28;20218;-80
2021/11/30 05:20:53;;;;;;;1.27;1.17;;;;;;;20.17;49.73;97064.94;5013323;28;20195;-80
2021/11/30 05:23:30;;;;;;;1.63;1.40;;;;;;;20.18;49.73;97066.66;5013104;28;20292;-80
2021/11/30 05:26:00;;;;;;;1.43;1.33;;;;;;;20.49;49.77;97122.81;4988652;28;20767;-80
2021/11/30 05:28:27;;;;;;;1.40;1.30;;;;;;;19.68;49.57;96978.53;5001813;28;20292;-80
2021/11/30 05:30:57;;;;;;;1.50;1.40;;;;;;;20.48;50.06;97111.75;4986377;28;20213;-79
2021/11/30 05:33:24;;;;;;;2.20;1.40;;;;;;;20.49;49.66;97116.00;5005272;28;20542;-80
2021/11/30 05:35:51;;;;;;;1.50;1.40;;;;;;;20.50;49.73;97109.22;5015675;28;20205;-81
2021/11/30 05:38:17;;;;;;;3.20;1.20;;;;;;;18.99;49.39;96846.59;5004657;28;20747;-80
2021/11/30 05:40:44;;;;;;;1.67;1.40;;;;;;;20.50;49.57;97109.22;4988697;28;20203;-80
2021/11/30 05:43:11;;;;;;;1.40;1.30;;;;;;;20.18;49.79;97043.69;5021257;28;20316;-80
2021/11/30 05:45:38;;;;;;;1.93;1.30;;;;;;;19.43;49.43;96909.88;4997070;28;20722;-80
2021/11/30 05:48:05;;;;;;;1.47;1.37;;;;;;;20.50;49.66;97093.91;4971370;28;20258;-80
2021/11/30 05:50:32;;;;;;;1.50;1.40;;;;;;;20.50;49.66;97087.13;5003750;28;20221;-80
2021/11/30 05:52:58;;;;;;;1.40;1.30;;;;;;;20.51;49.70;97080.31;5011247;28;20237;-80
2021/11/30 05:55:25;;;;;;;1.43;1.33;;;;;;;20.50;49.58;97087.13;5014713;28;20206;-80
2021/11/30 05:57:52;;;;;;;1.40;1.30;;;;;;;20.22;49.71;97037.88;4996329;28;20277;-79
2021/11/30 06:00:18;;;;;;;1.73;1.33;;;;;;;20.51;49.78;97095.63;5004043;28;20264;-79
2021/11/30 06:03:02;;;;;;;1.37;1.20;;;;;;;19.46;49.34;96912.50;5011258;28;20281;-79
2021/11/30 06:05:29;;;;;;;1.20;1.20;;;;;;;20.52;49.73;97092.28;4988036;28;20276;-79
2021/11/30 06:07:56;;;;;;;1.10;1.00;;;;;;;20.51;49.56;97083.75;4996803;28;20198;-80
2021/11/30 06:10:23;;;;;;;1.40;1.30;;;;;;;20.50;49.63;97084.56;4995717;28;20257;-79
2021/11/30 06:12:49;;;;;;;2.23;1.40;;;;;;;20.07;49.96;97017.03;5011922;28;20237;-80
2021/11/30 06:15:16;;;;;;;1.27;1.17;;;;;;;19.76;49.58;96954.13;4995430;28;20734;-80
2021/11/30 06:17:42;;;;;;;1.50;1.40;;;;;;;20.00;49.48;96995.56;4986075;28;20285;-80
2021/11/30 06:20:11;;;;;;;1.20;1.20;;;;;;;20.23;49.44;97025.16;4979634;28;20250;-79
2021/11/30 06:22:40;;;;;;;2.20;1.13;;;;;;;20.05;49.45;97003.34;4980463;28;20198;-80
2021/11/30 06:25:07;;;;;;;1.20;1.20;;;;;;;20.25;49.30;97048.16;4962624;28;20308;-80
2021/11/30 06:27:34;;;;;;;1.40;1.30;;;;;;;19.70;49.36;96946.31;4980996;28;20649;-79
2021/11/30 06:30:00;;;;;;;1.30;1.20;;;;;;;20.19;49.42;97033.53;4979246;28;20280;-80
2021/11/30 06:32:27;;;;;;;1.30;1.20;;;;;;;19.72;49.35;96947.22;4984278;28;20233;-80
2021/11/30 06:34:54;;;;;;;1.30;1.20;;;;;;;20.48;49.47;97085.34;5002589;28;20198;-80
2021/11/30 06:37:21;;;;;;;1.43;1.30;;;;;;;20.05;49.38;97000.81;5015390;28;20614;-80
2021/11/30 06:39:47;;;;;;;1.23;1.17;;;;;;;18.76;49.85;96777.19;4981676;28;20218;-80
2021/11/30 06:42:14;;;;;;;1.30;1.20;;;;;;;19.66;49.57;96937.69;4993846;28;20301;-80
2021/11/30 06:44:41;;;;;;;1.30;1.20;;;;;;;20.47;49.67;97076.84;4994407;28;20308;-80
2021/11/30 06:47:08;;;;;;;1.30;1.20;;;;;;;19.62;49.66;96929.94;4992366;28;20241;-80
2021/11/30 06:49:34;;;;;;;1.23;1.23;;;;;;;19.67;49.60;96951.31;5001423;28;20230;-80
2021/11/30 06:52:01;;;;;;;1.40;1.30;;;;;;;19.68;49.61;96950.50;4999624;28;20256;-80
2021/11/30 06:54:28;;;;;;;1.40;1.30;;;;;;;19.50;49.36;96896.47;4978593;28;20199;-79
2021/11/30 06:56:54;;;;;;;1.40;1.30;;;;;;;19.66;49.57;96926.66;4977662;28;20207;-80
2021/11/30 06:59:23;;;;;;;1.17;1.17;;;;;;;20.50;49.49;97065.84;4985667;28;20250;-78
2021/11/30 07:01:50;;;;;;;1.60;1.50;;;;;;;20.50;49.67;97060.72;4989727;28;20265;-80
2021/11/30 07:04:17;;;;;;;1.30;1.20;;;;;;;20.20;49.23;97009.78;4990709;28;20272;-80
2021/11/30 07:09:20;;;;;;;1.40;1.30;;;;;;;19.67;49.67;96896.13;4994679;28;20254;-81
2021/11/30 07:14:32;;;;;;;1.37;1.20;;;;;;;18.97;49.47;96774.38;4982739;28;20194;-80
2021/11/30 07:16:59;;;;;;;1.10;1.10;;;;;;;20.21;49.49;96987.66;4973933;28;20297;-79
2021/11/30 07:19:29;;;;;;;1.53;1.27;;;;;;;20.52;49.45;97052.28;4968752;28;20288;-80
2021/11/30 07:21:55;;;;;;;1.30;1.20;;;;;;;19.99;49.42;96948.78;4962585;28;20202;-81
2021/11/30 07:24:22;;;;;;;1.40;1.30;;;;;;;20.34;49.01;96997.38;5005458;28;20254;-81
2021/11/30 07:26:49;;;;;;;1.30;1.20;;;;;;;20.25;49.24;96987.75;4992131;28;20202;-80
2021/11/30 07:29:35;;;;;;;1.03;1.03;;;;;;;20.08;49.32;96937.13;4974626;28;20592;-81
2021/11/30 07:32:02;;;;;;;1.30;1.20;;;;;;;20.02;49.26;96929.31;4990869;28;20198;-81
2021/11/30 07:34:29;;;;;;;1.60;1.50;;;;;;;20.53;49.38;97033.59;4990570;28;20253;-81
2021/11/30 07:36:56;;;;;;;1.37;1.27;;;;;;;19.72;49.31;96891.13;4998453;28;20247;-80
2021/11/30 07:39:23;;;;;;;1.30;1.20;;;;;;;20.54;49.41;97026.81;4987242;28;20237;-80
2021/11/30 07:41:49;;;;;;;1.40;1.30;;;;;;;20.14;49.61;96967.91;4986462;28;20225;-81
2021/11/30 07:44:16;;;;;;;1.13;1.13;;;;;;;20.53;49.29;97028.50;4978943;28;20225;-81
2021/11/30 07:46:43;;;;;;;1.70;1.30;;;;;;;20.54;49.33;97017.44;4995649;28;20276;-81
2021/11/30 07:49:09;;;;;;;1.40;1.30;;;;;;;20.28;49.26;96977.63;5019173;28;20236;-81
2021/11/30 07:51:36;;;;;;;1.40;1.30;;;;;;;20.03;49.36;96929.34;4993510;28;20580;-80
2021/11/30 07:54:02;;;;;;;1.57;1.20;;;;;;;20.23;49.34;96952.84;4979462;28;20198;-80
2021/11/30 07:56:29;;;;;;;1.10;1.10;;;;;;;20.26;50.09;96958.91;4996440;28;20289;-80
2021/11/30 07:58:56;;;;;;;1.50;1.40;;;;;;;20.55;49.31;97003.88;4992534;28;20247;-80
2021/11/30 08:01:22;;;;;;;1.30;1.20;;;;;;;20.00;49.19;96911.41;4992587;28;20237;-80
2021/11/30 08:03:49;;;;;;;1.33;1.23;;;;;;;20.56;49.25;97014.94;4956888;28;20250;-80
2021/11/30 08:06:16;;;;;;;1.27;1.20;;;;;;;20.55;49.26;96998.78;4991097;28;20755;-81
2021/11/30 08:08:43;;;;;;;1.30;1.20;;;;;;;19.23;49.56;96765.75;5011971;28;20618;-80
2021/11/30 08:11:10;;;;;;;1.07;1.07;;;;;;;19.69;49.27;96835.81;4996673;28;20574;-79
2021/11/30 08:13:36;;;;;;;1.23;1.20;;;;;;;20.56;49.54;96987.72;4994785;28;20285;-80
2021/11/30 08:16:03;;;;;;;1.10;1.10;;;;;;;19.33;49.42;96780.50;5010264;28;20198;-81
2021/11/30 08:18:30;;;;;;;2.03;1.27;;;;;;;20.55;49.34;96977.47;4974619;28;20254;-79
2021/11/30 08:20:56;;;;;;;6.67;1.40;;;;;;;20.54;49.22;96980.88;5009419;28;20230;-80
2021/11/30 08:23:23;;;;;;;1.13;1.13;;;;;;;20.20;49.10;96919.59;4991284;28;20237;-80
2021/11/30 08:25:50;;;;;;;1.20;1.20;;;;;;;19.75;48.73;96846.16;4995836;28;20210;-81
2021/11/30 08:28:16;;;;;;;1.40;1.30;;;;;;;20.49;49.29;96957.75;4996420;28;20249;-80
2021/11/30 08:30:45;;;;;;;1.33;1.30;;;;;;;20.23;49.29;96918.00;5008295;28;20194;-80
2021/11/30 08:33:12;;;;;;;1.20;1.10;;;;;;;19.41;49.29;96767.13;4992781;28;20237;-81
2021/11/30 08:35:38;;;;;;;1.50;1.40;;;;;;;20.47;49.26;96953.44;4976002;28;20253;-80
2021/11/30 08:38:05;;;;;;;1.40;1.30;;;;;;;20.34;49.28;96939.50;4997209;28;20296;-79
2021/11/30 08:40:32;;;;;;;1.20;1.10;;;;;;;18.62;49.25;96641.06;4994044;28;20206;-79
2021/11/30 08:42:59;;;;;;;1.10;1.10;;;;;;;20.47;49.41;96948.34;4976079;28;20206;-80
2021/11/30 08:45:26;;;;;;;1.20;1.20;;;;;;;19.72;49.43;96810.41;4996152;28;20674;-80
2021/11/30 08:47:52;;;;;;;1.27;1.10;;;;;;;20.46;49.22;96952.56;4983975;28;20226;-83
2021/11/30 08:50:19;;;;;;;1.50;1.40;;;;;;;19.07;49.35;96685.53;4980981;28;20281;-82
2021/11/30 08:52:46;;;;;;;1.27;1.27;;;;;;;20.47;49.59;96931.34;4980366;28;20245;-84
2021/11/30 08:55:13;;;;;;;1.20;1.10;;;;;;;20.48;49.43;96927.09;5009785;28;20203;-80
2021/11/30 08:57:40;;;;;;;1.73;1.60;;;;;;;20.47;49.42;96922.81;4999965;28;20233;-79
2021/11/30 09:00:14;;;;;;;1.30;1.20;;;;;;;20.48;49.47;96934.75;4997717;28;20249;-80
2021/11/30 09:02:41;;;;;;;1.20;1.20;;;;;;;20.48;49.22;96932.19;5013429;28;20248;-80
2021/11/30 09:05:10;;;;;;;1.10;1.10;;;;;;;19.66;49.27;96776.28;4997601;28;20280;-79
2021/11/30 09:07:36;;;;;;;1.07;1.07;;;;;;;19.71;49.31;96788.28;4995982;28;20210;-80
2021/11/30 09:10:04;;;;;;;1.27;1.17;;;;;;;20.17;49.49;96856.63;4979014;28;20262;-80
2021/11/30 09:12:31;;;;;;;1.40;1.30;;;;;;;19.14;49.14;96669.63;4983001;28;20203;-79
2021/11/30 09:14:57;;;;;;;1.20;1.20;;;;;;;20.17;49.33;96846.41;4982580;28;20290;-79
2021/11/30 09:17:45;;;;;;;1.27;1.20;;;;;;;20.50;49.28;96910.13;4999314;28;20210;-80
2021/11/30 09:20:12;;;;;;;1.10;1.10;;;;;;;20.50;49.32;96900.78;4996181;28;20218;-79
2021/11/30 09:22:38;;;;;;;1.20;1.10;;;;;;;20.49;49.34;96896.50;4998519;28;20198;-79
2021/11/30 09:25:06;;;;;;;1.43;1.33;;;;;;;20.01;49.05;96797.53;4999717;28;20280;-79
2021/11/30 09:27:35;;;;;;;1.93;1.20;;;;;;;18.97;49.66;96631.78;4979070;28;20210;-80
2021/11/30 09:30:03;;;;;;;1.20;1.10;;;;;;;20.49;49.30;96888.84;4976074;28;20265;-80
2021/11/30 09:32:30;;;;;;;1.10;1.10;;;;;;;20.50;49.25;96884.59;5010995;28;20232;-79
2021/11/30 09:35:03;;;;;;;1.30;1.20;;;;;;;20.50;49.14;96869.28;4995012;28;20194;-79
2021/11/30 09:37:30;;;;;;;1.30;1.20;;;;;;;20.51;49.23;96881.22;4998588;28;20212;-79
2021/11/30 09:39:59;;;;;;;1.10;1.10;;;;;;;20.20;49.39;96825.19;5016920;28;20324;-81
2021/11/30 09:42:25;;;;;;;1.40;1.30;;;;;;;20.49;49.16;96873.53;4995785;28;20321;-81
2021/11/30 09:44:52;;;;;;;1.17;1.10;;;;;;;20.50;49.25;96874.41;5014610;28;20313;-82
2021/11/30 09:47:19;;;;;;;1.20;1.10;;;;;;;19.91;49.47;96771.81;4979418;28;20655;-81
2021/11/30 09:49:45;;;;;;;1.23;1.13;;;;;;;19.11;49.33;96618.59;4965050;28;20245;-81
2021/11/30 09:52:12;;;;;;;1.23;1.13;;;;;;;18.35;49.33;96499.56;4987520;28;20202;-82
2021/11/30 09:54:39;;;;;;;1.40;1.30;;;;;;;20.51;48.76;96860.78;4999246;28;20194;-81
2021/11/30 09:57:05;;;;;;;1.20;1.10;;;;;;;19.87;49.25;96746.19;5015195;28;20276;-82
2021/11/30 09:59:32;;;;;;;1.40;1.30;;;;;;;19.31;49.33;96639.50;4982893;28;20222;-82
2021/11/30 10:01:58;;;;;;;1.23;1.17;;;;;;;20.50;49.37;96848.88;4979044;28;20230;-80
2021/11/30 10:04:25;;;;;;;1.30;1.20;;;;;;;19.09;49.39;96596.44;4980769;28;20226;-81
2021/11/30 10:06:52;;;;;;;1.00;1.00;;;;;;;20.48;49.24;96836.06;5001332;28;20254;-80
2021/11/30 10:09:24;;;;;;;1.60;1.40;;;;;;;19.94;49.38;96735.28;5020008;28;20313;-80
2021/11/30 10:12:01;;;;;;;1.53;1.40;;;;;;;20.49;49.20;96834.41;4990807;28;20230;-81
2021/11/30 10:14:35;;;;;;;1.27;1.07;;;;;;;19.67;48.91;96691.31;5006597;28;20288;-81
2021/11/30 10:17:17;;;;;;;1.10;1.10;;;;;;;19.64;49.10;96684.47;5013479;28;20205;-81
2021/11/30 10:19:51;;;;;;;1.30;1.20;;;;;;;20.14;49.08;96767.25;5014343;28;20768;-80
2021/11/30 10:22:45;;;;;;;1.30;1.20;;;;;;;20.43;49.31;96817.22;5006383;28;20202;-80
2021/11/30 10:25:18;;;;;;;1.30;1.20;;;;;;;20.44;49.27;96818.09;5002581;28;20652;-80
2021/11/30 10:27:57;;;;;;;1.53;1.30;;;;;;;20.43;49.37;96819.78;5020079;28;20229;-81
2021/11/30 10:30:26;;;;;;;1.30;1.20;;;;;;;19.89;49.06;96721.56;5063245;22;20366;-84
2021/11/30 10:32:54;;;;;;;2.00;1.20;;;;;;;20.21;49.29;96792.06;4995778;28;20727;-82
2021/11/30 10:35:25;;;;;;;1.40;1.30;;;;;;;19.78;49.34;96700.09;5023442;28;20228;-83
2021/11/30 10:37:52;;;;;;;1.30;1.20;;;;;;;19.85;49.33;96705.38;5044867;28;20193;-81
2021/11/30 10:40:21;;;;;;;1.30;1.20;;;;;;;20.19;49.33;96763.09;5013597;28;20253;-80
2021/11/30 10:42:50;;;;;;;1.33;1.23;;;;;;;20.45;49.53;96789.19;5013512;28;20221;-81
2021/11/30 10:45:29;;;;;;;1.00;1.00;;;;;;;19.84;49.23;96697.69;5027474;28;20292;-81
2021/11/30 10:48:16;;;;;;;3.07;1.20;;;;;;;19.76;49.34;96684.75;5031788;28;20232;-81
2021/11/30 10:50:51;;;;;;;1.00;1.00;;;;;;;20.07;49.40;96713.50;5000575;28;20217;-81
2021/11/30 10:53:28;;;;;;;1.37;1.27;;;;;;;20.24;49.45;96746.22;5018706;28;20229;-83
2021/11/30 10:56:05;;;;;;;2.13;1.20;;;;;;;20.18;49.38;96728.22;4997138;28;20225;-80
2021/11/30 10:58:33;;;;;;;1.13;1.13;;;;;;;20.20;49.31;96744.44;5009535;28;20197;-81
2021/11/30 11:01:05;;;;;;;1.20;1.10;;;;;;;20.45;49.33;96762.00;5009514;28;20248;-83
2021/11/30 11:03:32;;;;;;;2.03;1.13;;;;;;;19.96;48.87;96678.41;5001916;28;20221;-81
2021/11/30 11:08:55;;;;;;;1.23;1.13;;;;;;;19.87;49.15;96652.69;5004594;28;20266;-81
2021/11/30 11:11:25;;;;;;;1.50;1.40;;;;;;;20.31;49.38;96724.25;4981371;28;20237;-81
2021/11/30 11:13:52;;;;;;;1.40;1.30;;;;;;;19.80;49.14;96633.00;5022724;28;20288;-81
2021/11/30 11:16:37;;;;;;;1.30;1.20;;;;;;;20.20;49.30;96705.31;5017048;28;20232;-80
2021/11/30 11:19:06;;;;;;;1.40;1.30;;;;;;;19.69;49.40;96618.31;5002534;28;20204;-80
2021/11/30 11:21:37;;;;;;;1.20;1.10;;;;;;;20.13;49.32;96689.00;5005217;28;20316;-78
2021/11/30 11:24:06;;;;;;;1.33;1.20;;;;;;;19.15;49.54;96538.91;4989177;28;20434;-81
2021/11/30 11:26:32;;;;;;;1.40;1.30;;;;;;;20.47;49.35;96739.06;5027870;28;20825;-78
2021/11/30 11:29:05;;;;;;;2.50;1.10;;;;;;;19.70;49.27;96610.69;5040260;28;20228;-79
2021/11/30 11:31:34;;;;;;;1.97;1.40;;;;;;;20.20;49.29;96698.53;5013916;28;20201;-78
2021/11/30 11:34:02;;;;;;;1.40;1.30;;;;;;;19.54;49.20;96574.66;5017073;28;20197;-81
2021/11/30 11:36:29;;;;;;;1.20;1.20;;;;;;;20.23;49.34;96700.25;5018404;28;20563;-80
2021/11/30 11:38:55;;;;;;;1.40;1.30;;;;;;;20.05;49.29;96659.03;5001512;28;20226;-80
2021/11/30 11:41:23;;;;;;;1.20;1.20;;;;;;;19.93;49.39;96641.78;5021319;28;20204;-81
2021/11/30 11:43:51;;;;;;;1.10;1.10;;;;;;;20.07;49.25;96660.78;5014321;28;20206;-80
2021/11/30 11:46:18;;;;;;;1.83;1.40;;;;;;;20.07;49.15;96660.78;4989669;28;20666;-80
2021/11/30 11:48:45;;;;;;;1.50;1.23;;;;;;;19.87;49.19;96622.09;5009972;28;20244;-80
2021/11/30 11:51:12;;;;;;;2.93;1.20;;;;;;;20.09;49.20;96646.38;4988634;28;20230;-82
2021/11/30 11:53:52;;;;;;;1.40;1.30;;;;;;;20.47;49.18;96711.84;5026839;28;20921;-79
2021/11/30 11:56:20;;;;;;;1.40;1.30;;;;;;;20.49;49.17;96706.78;5016874;28;20197;-81